createdAt,value
2019-01-23T00:02:15.983Z,95005.96
2019-01-23T00:04:41.840Z,95012.33
2019-01-23T00:07:10.438Z,94994.22
2019-01-23T00:09:36.251Z,95000.34
2019-01-23T00:12:02.211Z,94980.47
2019-01-23T00:14:28.151Z,94976.13
2019-01-23T00:16:54.287Z,94976.51
2019-01-23T00:19:20.220Z,94971.41
2019-01-23T00:21:46.047Z,94968.53
2019-01-23T00:24:14.670Z,94966.20
2019-01-23T00:26:40.504Z,94987.22
2019-01-23T00:29:11.557Z,94958.88
2019-01-23T00:31:37.372Z,94951.55
2019-01-23T00:34:05.972Z,94950.84
2019-01-23T00:36:31.806Z,94953.59
2019-01-23T00:38:59.020Z,94948.49
2019-01-23T00:41:25.127Z,94958.42
2019-01-23T00:43:55.615Z,94949.44
2019-01-23T00:46:21.482Z,94939.44
2019-01-23T00:48:47.331Z,94937.44
2019-01-23T00:51:13.134Z,94938.01
2019-01-23T00:53:39.243Z,94937.30
2019-01-23T00:56:05.209Z,94934.38
2019-01-23T00:58:31.334Z,94954.67
2019-01-23T01:00:59.958Z,94923.20
2019-01-23T01:03:25.756Z,94944.72
2019-01-23T01:05:54.893Z,94926.41
2019-01-23T01:08:21.016Z,94923.34
2019-01-23T01:10:49.746Z,94914.05
2019-01-23T01:13:15.877Z,94913.62
2019-01-23T01:15:44.966Z,94909.84
2019-01-23T01:18:10.816Z,94920.79
2019-01-23T01:20:39.762Z,94918.02
2019-01-23T01:23:05.984Z,94934.98
2019-01-23T01:25:31.813Z,94907.16
2019-01-23T01:27:57.885Z,94903.77
2019-01-23T01:30:23.833Z,94904.23
2019-01-23T01:32:52.522Z,94902.07
2019-01-23T01:35:18.370Z,94905.99
2019-01-23T01:37:47.405Z,94898.11
2019-01-23T01:40:16.042Z,94905.09
2019-01-23T01:42:42.148Z,94892.91
2019-01-23T01:45:09.647Z,94890.42
2019-01-23T01:47:35.842Z,94886.59
2019-01-23T01:50:03.158Z,94889.05
2019-01-23T01:52:31.812Z,94897.20
2019-01-23T01:54:57.622Z,94880.44
2019-01-23T01:57:26.254Z,94887.88
2019-01-23T01:59:52.081Z,94900.17
2019-01-23T02:02:17.916Z,94875.66
2019-01-23T02:04:43.721Z,94869.11
2019-01-23T02:07:09.566Z,94861.84
2019-01-23T02:09:38.554Z,94859.62
2019-01-23T02:12:04.608Z,94858.22
2019-01-23T02:14:33.696Z,94847.42
2019-01-23T02:16:59.542Z,94847.23
2019-01-23T02:19:25.388Z,94838.38
2019-01-23T02:21:51.221Z,94841.30
2019-01-23T02:24:19.897Z,94833.90
2019-01-23T02:26:45.746Z,94831.11
2019-01-23T02:29:16.737Z,94826.16
2019-01-23T02:31:42.604Z,94821.12
2019-01-23T02:34:09.884Z,94821.55
2019-01-23T02:36:35.708Z,94822.72
2019-01-23T02:39:01.806Z,94818.25
2019-01-23T02:41:27.663Z,94812.39
2019-01-23T02:43:53.491Z,94808.47
2019-01-23T02:46:23.063Z,94803.81
2019-01-23T02:48:49.208Z,94813.94
2019-01-23T02:51:18.196Z,94792.42
2019-01-23T02:53:44.053Z,94803.23
2019-01-23T02:56:13.100Z,94789.75
2019-01-23T02:58:39.226Z,94788.72
2019-01-23T03:01:08.430Z,94780.70
2019-01-23T03:03:34.521Z,94796.69
2019-01-23T03:06:00.745Z,94728.66
2019-01-23T03:08:26.560Z,94772.30
2019-01-23T03:10:55.736Z,94775.17
2019-01-23T03:13:21.534Z,94791.92
2019-01-23T03:15:47.359Z,94764.16
2019-01-23T03:18:13.499Z,94756.14
2019-01-23T03:20:39.357Z,94757.80
2019-01-23T03:23:07.999Z,94756.45
2019-01-23T03:25:33.923Z,94767.47
2019-01-23T03:28:02.774Z,94748.61
2019-01-23T03:30:28.611Z,94746.72
2019-01-23T03:32:57.627Z,94751.30
2019-01-23T03:35:23.491Z,94745.52
2019-01-23T03:37:53.004Z,94744.48
2019-01-23T03:40:19.838Z,94763.34
2019-01-23T03:42:45.731Z,94744.59
2019-01-23T03:45:13.068Z,94739.78
2019-01-23T03:47:40.201Z,94736.48
2019-01-23T03:50:09.946Z,94736.39
2019-01-23T03:52:35.745Z,94734.80
2019-01-23T03:55:02.338Z,94729.61
2019-01-23T03:57:28.178Z,94730.41
2019-01-23T03:59:54.064Z,94728.44
2019-01-23T04:02:19.902Z,94723.22
2019-01-23T04:04:48.776Z,94716.67
2019-01-23T04:07:14.619Z,94733.81
2019-01-23T04:09:43.222Z,94716.63
2019-01-23T04:12:09.064Z,94719.93
2019-01-23T04:14:36.008Z,94711.55
2019-01-23T04:17:02.135Z,94713.84
2019-01-23T04:19:30.958Z,94710.66
2019-01-23T04:21:56.769Z,94736.46
2019-01-23T04:24:25.404Z,94704.81
2019-01-23T04:26:51.260Z,94736.69
2019-01-23T04:29:17.090Z,94704.57
2019-01-23T04:31:43.182Z,94703.25
2019-01-23T04:34:09.319Z,94703.41
2019-01-23T04:36:38.232Z,94700.05
2019-01-23T04:39:05.803Z,94712.81
2019-01-23T04:41:34.923Z,94694.16
2019-01-23T04:44:00.790Z,94696.37
2019-01-23T04:46:26.900Z,94692.38
2019-01-23T04:48:52.996Z,94691.85
2019-01-23T04:51:32.637Z,94694.25
2019-01-23T04:53:58.477Z,94711.23
2019-01-23T04:56:24.280Z,94688.80
2019-01-23T04:58:50.394Z,94684.02
2019-01-23T05:01:16.796Z,94677.64
2019-01-23T05:03:42.875Z,94673.63
2019-01-23T05:06:08.737Z,94678.17
2019-01-23T05:08:34.578Z,94672.81
2019-01-23T05:11:00.418Z,94669.35
2019-01-23T05:13:26.273Z,94666.61
2019-01-23T05:15:52.108Z,94665.77
2019-01-23T05:18:17.966Z,94658.37
2019-01-23T05:20:43.796Z,94664.08
2019-01-23T05:23:12.671Z,94657.73
2019-01-23T05:25:38.542Z,94658.13
2019-01-23T05:28:07.374Z,94653.27
2019-01-23T05:30:33.581Z,94653.48
2019-01-23T05:33:02.952Z,94652.33
2019-01-23T05:35:28.766Z,94672.08
2019-01-23T05:37:57.480Z,94654.20
2019-01-23T05:40:23.313Z,94678.02
2019-01-23T05:42:49.146Z,94654.91
2019-01-23T05:45:15.056Z,94646.56
2019-01-23T05:47:41.305Z,94649.61
2019-01-23T05:50:17.713Z,94647.62
2019-01-23T05:52:43.813Z,94671.53
2019-01-23T05:55:11.330Z,94648.23
2019-01-23T05:57:37.466Z,94646.37
2019-01-23T06:00:14.312Z,94651.06
2019-01-23T06:02:40.454Z,94652.42
2019-01-23T06:05:08.076Z,94642.44
2019-01-23T06:07:33.914Z,94643.50
2019-01-23T06:10:00.325Z,94642.77
2019-01-23T06:12:26.215Z,94640.36
2019-01-23T06:14:52.071Z,94643.87
2019-01-23T06:17:18.242Z,94633.76
2019-01-23T06:19:44.150Z,94641.33
2019-01-23T06:22:09.965Z,94635.36
2019-01-23T06:24:35.780Z,94637.45
2019-01-23T06:27:01.919Z,94637.84
2019-01-23T06:29:28.012Z,94632.05
2019-01-23T06:31:53.846Z,94629.28
2019-01-23T06:34:19.690Z,94638.98
2019-01-23T06:36:45.496Z,94642.11
2019-01-23T06:39:11.308Z,94645.54
2019-01-23T06:41:37.250Z,94648.70
2019-01-23T06:44:03.121Z,94640.86
2019-01-23T06:46:32.519Z,94641.34
2019-01-23T06:48:58.645Z,94638.91
2019-01-23T06:51:27.674Z,94641.42
2019-01-23T06:53:53.775Z,94636.90
2019-01-23T06:56:19.585Z,94631.04
2019-01-23T06:58:45.424Z,94627.45
2019-01-23T07:01:11.479Z,94638.04
2019-01-23T07:03:38.512Z,94632.50
2019-01-23T07:06:04.463Z,94639.61
2019-01-23T07:08:33.776Z,94630.88
2019-01-23T07:10:59.607Z,94651.69
2019-01-23T07:13:28.802Z,94629.77
2019-01-23T07:15:54.637Z,94627.23
2019-01-23T07:18:23.556Z,94622.58
2019-01-23T07:20:49.345Z,94627.84
2019-01-23T07:23:18.482Z,94632.16
2019-01-23T07:25:44.289Z,94630.94
2019-01-23T07:28:13.105Z,94578.61
2019-01-23T07:30:39.340Z,94643.20
2019-01-23T07:33:05.644Z,94628.70
2019-01-23T07:35:31.580Z,94628.92
2019-01-23T07:37:57.780Z,94631.62
2019-01-23T07:40:23.633Z,94625.36
2019-01-23T07:42:49.458Z,94622.73
2019-01-23T07:45:23.388Z,94625.49
2019-01-23T07:47:49.271Z,94619.40
2019-01-23T07:50:15.168Z,94624.41
2019-01-23T07:52:41.386Z,94622.80
2019-01-23T07:55:15.656Z,94622.36
2019-01-23T07:57:41.475Z,94639.53
2019-01-23T08:00:13.122Z,94617.84
2019-01-23T08:02:39.057Z,94565.00
2019-01-23T08:05:08.389Z,94611.72
2019-01-23T08:07:34.189Z,94605.86
2019-01-23T08:10:00.334Z,94602.65
2019-01-23T08:12:26.201Z,94601.83
2019-01-23T08:14:52.032Z,94601.19
2019-01-23T08:17:18.233Z,94600.08
2019-01-23T08:19:44.069Z,94596.77
2019-01-23T08:22:09.987Z,94595.17
2019-01-23T08:24:35.861Z,94599.61
2019-01-23T08:27:07.056Z,94598.16
2019-01-23T08:29:29.974Z,94592.80
2019-01-23T08:31:55.836Z,94596.17
2019-01-23T08:34:21.641Z,94588.28
2019-01-23T08:36:50.883Z,94588.49
2019-01-23T08:39:16.698Z,94589.69
2019-01-23T08:41:42.820Z,94596.34
2019-01-23T08:44:08.690Z,94593.61
2019-01-23T08:46:34.521Z,94596.37
2019-01-23T08:49:00.416Z,94584.27
2019-01-23T08:51:26.245Z,94590.67
2019-01-23T08:53:54.840Z,94590.48
2019-01-23T08:56:20.748Z,94596.27
2019-01-23T08:58:49.413Z,94593.05
2019-01-23T09:01:15.616Z,94586.08
2019-01-23T09:03:44.230Z,94588.84
2019-01-23T09:06:10.329Z,94590.41
2019-01-23T09:08:39.822Z,94587.62
2019-01-23T09:11:05.637Z,94603.23
2019-01-23T09:13:34.343Z,94593.53
2019-01-23T09:16:00.166Z,94588.33
2019-01-23T09:18:28.829Z,94585.36
2019-01-23T09:20:54.962Z,94599.00
2019-01-23T09:23:20.805Z,94584.70
2019-01-23T09:25:50.128Z,94584.73
2019-01-23T09:28:14.634Z,94585.75
2019-01-23T09:30:43.954Z,94575.03
2019-01-23T09:33:29.377Z,94584.81
2019-01-23T09:36:17.473Z,94580.63
2019-01-23T09:39:17.389Z,94584.39
2019-01-23T09:42:06.247Z,94586.81
2019-01-23T09:44:52.587Z,94590.31
2019-01-23T09:47:34.260Z,94586.02
2019-01-23T09:50:20.578Z,94579.95
2019-01-23T09:52:56.034Z,94583.13
2019-01-23T09:55:21.882Z,94583.13
2019-01-23T09:57:48.755Z,94505.30
2019-01-23T10:00:20.599Z,94567.88
2019-01-23T10:02:46.465Z,94567.88
2019-01-23T10:05:12.291Z,94571.73
2019-01-23T10:07:38.126Z,94574.87
2019-01-23T10:10:07.736Z,94570.92
2019-01-23T10:12:33.600Z,94572.70
2019-01-23T10:14:59.401Z,94572.70
2019-01-23T10:17:25.254Z,94566.34
2019-01-23T10:19:52.676Z,94573.23
2019-01-23T10:22:18.607Z,94574.00
2019-01-23T10:24:44.865Z,94570.19
2019-01-23T10:27:10.942Z,94576.08
2019-01-23T10:29:36.735Z,94575.77
2019-01-23T10:32:03.066Z,94566.22
2019-01-23T10:34:28.917Z,94568.20
2019-01-23T10:36:54.998Z,94567.36
2019-01-23T10:39:20.971Z,94561.31
2019-01-23T10:41:46.829Z,94558.88
2019-01-23T10:44:12.949Z,94558.14
2019-01-23T10:46:38.795Z,94553.72
2019-01-23T10:49:07.963Z,94550.00
2019-01-23T10:51:34.065Z,94573.98
2019-01-23T10:53:59.932Z,94550.75
2019-01-23T10:56:25.838Z,94543.95
2019-01-23T10:58:54.542Z,94550.47
2019-01-23T11:01:20.674Z,94543.75
2019-01-23T11:03:51.437Z,94550.61
2019-01-23T11:06:17.248Z,94548.11
2019-01-23T11:08:45.968Z,94551.01
2019-01-23T11:11:11.794Z,94562.29
2019-01-23T11:13:37.588Z,94543.19
2019-01-23T11:16:03.667Z,94548.44
2019-01-23T11:18:31.840Z,94546.97
2019-01-23T11:20:58.099Z,94544.56
2019-01-23T11:23:24.128Z,94547.44
2019-01-23T11:25:50.405Z,94489.58
2019-01-23T11:28:16.237Z,94558.05
2019-01-23T11:30:45.589Z,94530.98
2019-01-23T11:33:11.430Z,94557.51
2019-01-23T11:35:40.046Z,94533.95
2019-01-23T11:38:05.930Z,94550.77
2019-01-23T11:40:34.954Z,94527.58
2019-01-23T11:43:00.818Z,94533.44
2019-01-23T11:45:29.822Z,94534.83
2019-01-23T11:47:55.763Z,94530.16
2019-01-23T11:50:23.173Z,94523.77
2019-01-23T11:52:49.692Z,94520.71
2019-01-23T11:55:15.600Z,94522.96
2019-01-23T11:57:41.449Z,94518.44
2019-01-23T12:00:13.942Z,94520.21
2019-01-23T12:02:39.900Z,94518.95
2019-01-23T12:05:08.939Z,94526.66
2019-01-23T12:07:35.110Z,94529.30
2019-01-23T12:10:01.179Z,94527.03
2019-01-23T12:12:27.027Z,94525.17
2019-01-23T12:14:52.846Z,94525.17
2019-01-23T12:17:21.476Z,94526.61
2019-01-23T12:19:47.324Z,94522.61
2019-01-23T12:22:14.491Z,94522.61
2019-01-23T12:24:40.335Z,94540.55
2019-01-23T12:27:06.252Z,94527.35
2019-01-23T12:29:32.409Z,94524.47
2019-01-23T12:31:58.246Z,94525.34
2019-01-23T12:34:27.130Z,94480.36
2019-01-23T12:36:53.350Z,94549.67
2019-01-23T12:39:22.516Z,94526.74
2019-01-23T12:41:48.379Z,94521.15
2019-01-23T12:44:39.056Z,94521.15
2019-01-23T12:47:04.919Z,94537.83
2019-01-23T12:49:30.789Z,94507.81
2019-01-23T12:51:56.642Z,94520.05
2019-01-23T12:54:22.454Z,94527.35
2019-01-23T12:56:48.285Z,94521.31
2019-01-23T12:59:14.392Z,94517.51
2019-01-23T13:01:42.117Z,94511.34
2019-01-23T13:04:08.210Z,94514.02
2019-01-23T13:06:34.053Z,94514.22
2019-01-23T13:09:00.196Z,94511.66
2019-01-23T13:11:26.336Z,94514.09
2019-01-23T13:13:52.142Z,94511.38
2019-01-23T13:16:17.983Z,94518.17
2019-01-23T13:18:44.109Z,94514.20
2019-01-23T13:21:09.949Z,94516.20
2019-01-23T13:23:35.775Z,94510.80
2019-01-23T13:26:02.182Z,94517.08
2019-01-23T13:28:29.138Z,94516.63
2019-01-23T13:30:55.273Z,94515.50
2019-01-23T13:33:21.399Z,94469.20
2019-01-23T13:35:47.541Z,94517.41
2019-01-23T13:38:13.350Z,94524.83
2019-01-23T13:40:39.307Z,94529.03
2019-01-23T13:43:05.833Z,94485.84
2019-01-23T13:45:31.760Z,94526.42
2019-01-23T13:47:58.013Z,94530.92
2019-01-23T13:50:23.866Z,94525.45
2019-01-23T13:52:51.558Z,94520.72
2019-01-23T13:55:19.969Z,94529.60
2019-01-23T13:57:49.220Z,94529.56
2019-01-23T14:00:27.081Z,94545.22
2019-01-23T14:02:53.111Z,94539.88
2019-01-23T14:05:19.153Z,94534.44
2019-01-23T14:07:44.994Z,94545.72
2019-01-23T14:10:15.301Z,94542.52
2019-01-23T14:12:41.450Z,94550.15
2019-01-23T14:15:14.133Z,94550.23
2019-01-23T14:17:40.120Z,94555.12
2019-01-23T14:20:09.563Z,94555.37
2019-01-23T14:22:35.958Z,94559.06
2019-01-23T14:25:01.899Z,94561.06
2019-01-23T14:27:27.993Z,94559.59
2019-01-23T14:29:54.145Z,94560.88
2019-01-23T14:32:19.952Z,94571.12
2019-01-23T14:34:46.035Z,94578.09
2019-01-23T14:37:12.241Z,94576.50
2019-01-23T14:39:38.116Z,94580.81
2019-01-23T14:42:05.218Z,94580.81
2019-01-23T14:44:31.265Z,94595.07
2019-01-23T14:46:57.404Z,94589.75
2019-01-23T14:49:23.746Z,94590.47
2019-01-23T14:51:49.882Z,94591.35
2019-01-23T14:54:16.010Z,94585.87
2019-01-23T14:56:42.139Z,94585.87
2019-01-23T14:59:08.234Z,94593.76
2019-01-23T15:01:34.076Z,94592.63
2019-01-23T15:04:00.164Z,94602.22
2019-01-23T15:06:26.004Z,94600.09
2019-01-23T15:08:52.132Z,94600.11
2019-01-23T15:11:17.977Z,94602.70
2019-01-23T15:13:43.802Z,94604.87
2019-01-23T15:16:12.397Z,94605.41
2019-01-23T15:18:38.245Z,94605.88
2019-01-23T15:21:07.082Z,94609.88
2019-01-23T15:23:32.906Z,94603.38
2019-01-23T15:26:01.755Z,94603.38
2019-01-23T15:28:27.915Z,94611.13
2019-01-23T15:30:53.765Z,94611.13
2019-01-23T15:33:19.848Z,94614.28
2019-01-23T15:35:45.985Z,94618.96
2019-01-23T15:38:14.631Z,94615.17
2019-01-23T15:40:40.681Z,94618.35
2019-01-23T15:43:09.601Z,94619.23
2019-01-23T15:45:35.835Z,94638.53
2019-01-23T15:48:03.365Z,94621.75
2019-01-23T15:50:29.198Z,94642.91
2019-01-23T15:52:56.982Z,94631.83
2019-01-23T15:55:23.924Z,94650.55
2019-01-23T15:57:52.916Z,94634.69
2019-01-23T16:00:27.851Z,94636.70
2019-01-23T16:02:53.766Z,94631.40
2019-01-23T16:05:19.711Z,94637.06
2019-01-23T16:07:45.538Z,94646.96
2019-01-23T16:10:14.737Z,94646.96
2019-01-23T16:12:40.534Z,94658.31
2019-01-23T16:15:09.768Z,94653.08
2019-01-23T16:17:35.931Z,94661.70
2019-01-23T16:20:04.151Z,94667.66
2019-01-23T16:22:31.173Z,94668.62
2019-01-23T16:24:57.158Z,94670.09
2019-01-23T16:27:23.249Z,94668.02
2019-01-23T16:29:49.094Z,94668.86
2019-01-23T16:32:15.167Z,94676.62
2019-01-23T16:34:41.287Z,94678.63
2019-01-23T16:37:07.138Z,94679.64
2019-01-23T16:39:32.937Z,94687.51
2019-01-23T16:41:58.780Z,94688.79
2019-01-23T16:44:24.882Z,94688.79
2019-01-23T16:46:50.748Z,94690.53
2019-01-23T16:49:16.591Z,94696.83
2019-01-23T16:51:43.945Z,94696.33
2019-01-23T16:54:10.159Z,94705.14
2019-01-23T16:56:39.010Z,94702.78
2019-01-23T16:59:04.952Z,94720.55
2019-01-23T17:01:34.308Z,94710.70
2019-01-23T17:04:00.549Z,94710.70
2019-01-23T17:06:29.195Z,94713.12
2019-01-23T17:08:55.052Z,94732.66
2019-01-23T17:11:22.273Z,94716.47
2019-01-23T17:13:48.397Z,94721.96
2019-01-23T17:16:19.556Z,94722.27
2019-01-23T17:18:45.406Z,94722.02
2019-01-23T17:21:11.264Z,94725.19
2019-01-23T17:23:37.101Z,94729.13
2019-01-23T17:26:03.562Z,94727.53
2019-01-23T17:28:29.426Z,94732.41
2019-01-23T17:30:55.284Z,94743.01
2019-01-23T17:33:24.172Z,94742.09
2019-01-23T17:35:50.020Z,94744.22
2019-01-23T17:38:18.855Z,94747.98
2019-01-23T17:40:44.661Z,94771.96
2019-01-23T17:43:14.084Z,94751.28
2019-01-23T17:45:40.320Z,94766.25
2019-01-23T17:48:09.947Z,94761.13
2019-01-23T17:50:35.999Z,94764.97
2019-01-23T17:53:03.286Z,94764.13
2019-01-23T17:55:32.001Z,94765.03
2019-01-23T17:57:58.274Z,94768.33
2019-01-23T18:00:28.027Z,94767.45
2019-01-23T18:02:53.831Z,94767.25
2019-01-23T18:05:20.026Z,94773.47
2019-01-23T18:07:45.958Z,94776.77
2019-01-23T18:10:13.399Z,94783.75
2019-01-23T18:12:39.516Z,94780.16
2019-01-23T18:15:18.126Z,94784.51
2019-01-23T18:17:44.096Z,94784.00
2019-01-23T18:20:18.166Z,94785.58
2019-01-23T18:22:44.139Z,94788.36
2019-01-23T18:25:11.524Z,94787.66
2019-01-23T18:27:37.462Z,94793.30
2019-01-23T18:30:15.498Z,94801.20
2019-01-23T18:32:41.337Z,94794.28
2019-01-23T18:35:16.841Z,94790.52
2019-01-23T18:37:55.564Z,94798.33
2019-01-23T18:40:40.621Z,94802.45
2019-01-23T18:43:28.286Z,94808.23
2019-01-23T18:46:03.778Z,94813.50
2019-01-23T18:48:42.152Z,94811.63
2019-01-23T18:51:12.154Z,94809.21
2019-01-23T18:53:37.962Z,94814.60
2019-01-23T18:56:04.013Z,94818.84
2019-01-23T18:58:30.129Z,94818.22
2019-01-23T19:00:55.969Z,94825.63
2019-01-23T19:03:21.918Z,94822.70
2019-01-23T19:05:48.028Z,94828.66
2019-01-23T19:08:14.131Z,94829.52
2019-01-23T19:10:40.175Z,94832.45
2019-01-23T19:13:06.100Z,94832.17
2019-01-23T19:15:32.229Z,94833.39
2019-01-23T19:17:58.036Z,94834.88
2019-01-23T19:20:24.138Z,94841.76
2019-01-23T19:22:50.056Z,94842.66
2019-01-23T19:25:16.284Z,94848.08
2019-01-23T19:27:42.303Z,94850.05
2019-01-23T19:30:14.423Z,94851.70
2019-01-23T19:32:40.499Z,94856.80
2019-01-23T19:35:06.603Z,94855.42
2019-01-23T19:37:32.435Z,94857.45
2019-01-23T19:39:58.239Z,94811.90
2019-01-23T19:42:24.172Z,94855.58
2019-01-23T19:44:49.977Z,94856.76
2019-01-23T19:47:15.820Z,94859.38
2019-01-23T19:49:41.739Z,94863.52
2019-01-23T19:52:07.693Z,94865.54
2019-01-23T19:54:33.542Z,94865.54
2019-01-23T19:56:59.349Z,94872.24
2019-01-23T19:59:25.184Z,94873.25
2019-01-23T20:01:51.000Z,94878.87
2019-01-23T20:04:16.840Z,94882.30
2019-01-23T20:06:42.910Z,94880.95
2019-01-23T20:09:08.851Z,94886.22
2019-01-23T20:11:34.667Z,94887.87
2019-01-23T20:14:00.528Z,94894.20
2019-01-23T20:16:26.365Z,94893.87
2019-01-23T20:18:52.482Z,94892.34
2019-01-23T20:21:18.592Z,94896.16
2019-01-23T20:23:44.735Z,94891.22
2019-01-23T20:26:10.554Z,94900.80
2019-01-23T20:28:36.393Z,94893.50
2019-01-23T20:31:05.377Z,94905.58
2019-01-23T20:33:31.224Z,94924.23
2019-01-23T20:36:00.110Z,94901.17
2019-01-23T20:38:25.978Z,94923.56
2019-01-23T20:40:52.174Z,94902.81
2019-01-23T20:43:17.987Z,94904.56
2019-01-23T20:45:44.092Z,94917.33
2019-01-23T20:48:10.322Z,94917.07
2019-01-23T20:50:36.253Z,94922.81
2019-01-23T20:53:05.027Z,94922.28
2019-01-23T20:55:30.938Z,94926.64
2019-01-23T20:58:00.301Z,94932.37
2019-01-23T21:00:28.510Z,94931.90
2019-01-23T21:02:54.619Z,94935.42
2019-01-23T21:05:20.640Z,94937.64
2019-01-23T21:07:51.249Z,94944.30
2019-01-23T21:10:19.736Z,94966.46
2019-01-23T21:12:45.888Z,94947.75
2019-01-23T21:15:13.610Z,94951.38
2019-01-23T21:17:39.434Z,94946.20
2019-01-23T21:20:07.586Z,94947.06
2019-01-23T21:22:34.170Z,94947.02
2019-01-23T21:25:00.022Z,94949.02
2019-01-23T21:27:25.905Z,94954.51
2019-01-23T21:29:51.776Z,94960.63
2019-01-23T21:32:17.598Z,94956.16
2019-01-23T21:34:46.501Z,94963.34
2019-01-23T21:37:12.339Z,94980.31
2019-01-23T21:39:41.166Z,94965.46
2019-01-23T21:42:07.269Z,94977.14
2019-01-23T21:44:36.389Z,94966.98
2019-01-23T21:47:02.207Z,94984.38
2019-01-23T21:49:29.254Z,94971.83
2019-01-23T21:51:55.118Z,94974.17
2019-01-23T21:54:20.927Z,94975.08
2019-01-23T21:56:46.765Z,94978.00
2019-01-23T21:59:12.591Z,94975.72
2019-01-23T22:01:43.475Z,94981.57
2019-01-23T22:04:09.594Z,94981.40
2019-01-23T22:06:35.528Z,94979.69
2019-01-23T22:09:01.674Z,95001.46
2019-01-23T22:11:30.275Z,94977.77
2019-01-23T22:13:56.077Z,94996.02
2019-01-23T22:16:24.962Z,94985.80
2019-01-23T22:18:50.809Z,94989.25
2019-01-23T22:21:19.493Z,94989.05
2019-01-23T22:23:45.631Z,94999.20
2019-01-23T22:26:14.912Z,94992.56
2019-01-23T22:28:40.757Z,94999.98
2019-01-23T22:31:06.855Z,94999.28
2019-01-23T22:33:32.695Z,94998.27
2019-01-23T22:35:58.798Z,95003.05
2019-01-23T22:38:27.857Z,95008.87
2019-01-23T22:40:53.703Z,95022.88
2019-01-23T22:43:22.409Z,95012.62
2019-01-23T22:45:48.244Z,95020.00
2019-01-23T22:48:17.129Z,95019.36
2019-01-23T22:50:43.001Z,95035.38
2019-01-23T22:53:10.874Z,95021.63
2019-01-23T22:55:36.710Z,95041.17
2019-01-23T22:58:07.475Z,95028.55
2019-01-23T23:00:53.127Z,95031.88
2019-01-23T23:03:19.318Z,95032.89
2019-01-23T23:05:45.348Z,95031.81
2019-01-23T23:08:11.577Z,95037.77
2019-01-23T23:10:37.384Z,95038.95
2019-01-23T23:13:03.432Z,95044.00
2019-01-23T23:15:29.332Z,95042.45
2019-01-23T23:17:55.161Z,95051.47
2019-01-23T23:20:21.014Z,95056.70
2019-01-23T23:22:47.106Z,95059.31
2019-01-23T23:27:39.454Z,95063.52
2019-01-23T23:30:10.278Z,95069.30
2019-01-23T23:32:36.104Z,95063.06
2019-01-23T23:35:03.937Z,95058.07
2019-01-23T23:37:29.743Z,95074.22
2019-01-23T23:39:55.591Z,95075.91
2019-01-23T23:42:21.725Z,95080.02
2019-01-23T23:44:47.545Z,95089.52
2019-01-23T23:47:13.657Z,95086.59
2019-01-23T23:49:39.470Z,95090.42
2019-01-23T23:52:05.731Z,95093.77
2019-01-23T23:54:31.897Z,95100.14
2019-01-23T23:56:57.982Z,95108.17
2019-01-23T23:59:24.119Z,95105.16
